createdAt,value
2017-11-03T00:00:06.772Z,6.76
2017-11-03T00:01:06.757Z,6.76
2017-11-03T00:02:06.749Z,6.78
2017-11-03T00:03:06.388Z,6.75
2017-11-03T00:04:07.067Z,6.73
2017-11-03T00:05:06.738Z,6.72
2017-11-03T00:06:06.376Z,6.73
2017-11-03T00:07:07.032Z,6.76
2017-11-03T00:08:07.038Z,6.79
2017-11-03T00:09:06.328Z,6.79
2017-11-03T00:10:06.647Z,6.76
2017-11-03T00:11:06.314Z,6.86
2017-11-03T00:12:06.969Z,6.83
2017-11-03T00:13:06.266Z,6.86
2017-11-03T00:14:06.596Z,6.83
2017-11-03T00:15:06.585Z,6.83
2017-11-03T00:16:06.566Z,6.9
2017-11-03T00:17:06.239Z,6.88
2017-11-03T00:18:06.544Z,6.88
2017-11-03T00:19:06.198Z,6.93
2017-11-03T00:20:06.174Z,6.85
2017-11-03T00:21:06.164Z,6.85
2017-11-03T00:22:06.151Z,6.82
2017-11-03T00:23:06.488Z,6.9
2017-11-03T00:24:06.477Z,6.83
2017-11-03T00:25:06.118Z,6.83
2017-11-03T00:26:06.104Z,6.86
2017-11-03T00:27:06.085Z,6.78
2017-11-03T00:28:06.094Z,6.85
2017-11-03T00:29:06.065Z,6.83
2017-11-03T00:30:06.046Z,6.82
2017-11-03T00:31:06.380Z,6.88
2017-11-03T00:32:06.021Z,6.83
2017-11-03T00:33:06.008Z,6.9
2017-11-03T00:34:06.339Z,6.86
2017-11-03T00:35:06.326Z,6.8
2017-11-03T00:36:06.660Z,6.86
2017-11-03T00:37:06.297Z,7
2017-11-03T00:38:06.639Z,6.97
2017-11-03T00:39:06.278Z,6.98
2017-11-03T00:40:06.603Z,6.98
2017-11-03T00:41:06.252Z,7
2017-11-03T00:42:05.894Z,7.04
2017-11-03T00:43:06.220Z,7.05
2017-11-03T00:44:05.865Z,7.05
2017-11-03T00:45:06.202Z,7.21
2017-11-03T00:46:06.182Z,7.09
2017-11-03T00:47:05.847Z,7.18
2017-11-03T00:48:05.818Z,7.16
2017-11-03T00:49:05.811Z,7.03
2017-11-03T00:50:05.792Z,7.12
2017-11-03T00:51:06.468Z,7.12
2017-11-03T00:52:06.107Z,7.01
2017-11-03T00:53:05.776Z,7.16
2017-11-03T00:54:06.090Z,7.01
2017-11-03T00:55:05.754Z,7.08
2017-11-03T00:56:06.134Z,7.08
2017-11-03T00:57:06.064Z,6.98
2017-11-03T00:58:06.035Z,6.95
2017-11-03T00:59:05.683Z,7.04
2017-11-03T01:00:06.400Z,6.94
2017-11-03T01:01:05.655Z,6.91
2017-11-03T01:02:05.652Z,6.82
2017-11-03T01:03:06.312Z,6.86
2017-11-03T01:04:05.636Z,6.76
2017-11-03T01:05:05.961Z,6.72
2017-11-03T01:06:06.278Z,6.62
2017-11-03T01:07:05.933Z,6.54
2017-11-03T01:08:05.924Z,6.57
2017-11-03T01:09:05.907Z,6.54
2017-11-03T01:10:05.884Z,6.51
2017-11-03T01:11:05.866Z,6.39
2017-11-03T01:12:05.864Z,6.34
2017-11-03T01:13:05.503Z,6.31
2017-11-03T01:14:05.489Z,6.25
2017-11-03T01:15:05.819Z,6.07
2017-11-03T01:16:05.465Z,6.05
2017-11-03T01:17:05.455Z,5.98
2017-11-03T01:18:05.782Z,5.95
2017-11-03T01:19:05.787Z,5.88
2017-11-03T01:20:05.756Z,5.87
2017-11-03T01:21:05.765Z,5.89
2017-11-03T01:22:05.733Z,5.89
2017-11-03T01:23:05.718Z,5.89
2017-11-03T01:24:05.723Z,5.88
2017-11-03T01:25:06.039Z,5.87
2017-11-03T01:26:05.687Z,6
2017-11-03T01:27:05.335Z,5.96
2017-11-03T01:28:05.650Z,5.98
2017-11-03T01:29:05.993Z,5.92
2017-11-03T01:30:05.646Z,6.06
2017-11-03T01:31:05.272Z,6.13
2017-11-03T01:32:05.262Z,6.07
2017-11-03T01:33:05.288Z,6.24
2017-11-03T01:34:05.916Z,6.26
2017-11-03T01:35:05.220Z,6.2
2017-11-03T01:36:05.550Z,6.21
2017-11-03T01:37:05.555Z,6.24
2017-11-03T01:38:05.536Z,6.34
2017-11-03T01:39:05.172Z,6.36
2017-11-03T01:40:05.499Z,6.46
2017-11-03T01:41:05.481Z,6.46
2017-11-03T01:42:05.129Z,6.46
2017-11-03T01:43:05.114Z,6.54
2017-11-03T01:44:05.121Z,6.52
2017-11-03T01:45:05.792Z,6.55
2017-11-03T01:46:05.074Z,6.57
2017-11-03T01:47:05.760Z,6.61
2017-11-03T01:48:05.051Z,6.67
2017-11-03T01:49:05.724Z,6.67
2017-11-03T01:50:05.369Z,6.67
2017-11-03T01:51:05.367Z,6.62
2017-11-03T01:52:05.339Z,6.7
2017-11-03T01:53:05.673Z,6.7
2017-11-03T01:54:05.650Z,6.67
2017-11-03T01:55:05.323Z,6.79
2017-11-03T01:56:05.311Z,6.78
2017-11-03T01:57:05.271Z,6.83
2017-11-03T01:58:04.923Z,6.79
2017-11-03T01:59:04.907Z,6.82
2017-11-03T02:00:05.261Z,6.82
2017-11-03T02:01:04.881Z,6.83
2017-11-03T02:02:04.870Z,6.83
2017-11-03T02:03:04.859Z,6.9
2017-11-03T02:04:05.189Z,6.88
2017-11-03T02:05:04.839Z,6.86
2017-11-03T02:06:05.159Z,6.88
2017-11-03T02:07:04.815Z,6.88
2017-11-03T02:08:04.790Z,7
2017-11-03T02:09:04.780Z,6.97
2017-11-03T02:10:05.456Z,6.98
2017-11-03T02:11:05.122Z,7.03
2017-11-03T02:12:05.426Z,6.95
2017-11-03T02:13:04.728Z,6.98
2017-11-03T02:14:05.067Z,6.93
2017-11-03T02:15:05.042Z,7.03
2017-11-03T02:16:04.701Z,6.95
2017-11-03T02:17:04.697Z,6.98
2017-11-03T02:18:05.012Z,7.03
2017-11-03T02:19:04.999Z,6.98
2017-11-03T02:20:04.663Z,6.98
2017-11-03T02:21:04.988Z,6.98
2017-11-03T02:22:04.635Z,6.98
2017-11-03T02:23:04.944Z,7.01
2017-11-03T02:24:04.929Z,6.98
2017-11-03T02:25:04.575Z,7
2017-11-03T02:26:04.569Z,7
2017-11-03T02:27:04.903Z,6.97
2017-11-03T02:28:04.537Z,6.97
2017-11-03T02:29:05.216Z,6.95
2017-11-03T02:30:04.529Z,6.95
2017-11-03T02:31:04.524Z,6.98
2017-11-03T02:32:04.848Z,7
2017-11-03T02:33:04.854Z,7.01
2017-11-03T02:34:04.803Z,7.08
2017-11-03T02:35:04.452Z,7.05
2017-11-03T02:36:04.806Z,7.05
2017-11-03T02:37:04.427Z,7.01
2017-11-03T02:38:04.420Z,7.05
2017-11-03T02:39:04.748Z,7.16
2017-11-03T02:40:04.392Z,7.09
2017-11-03T02:41:04.375Z,7.18
2017-11-03T02:42:05.060Z,7.13
2017-11-03T02:43:04.351Z,7.04
2017-11-03T02:44:04.336Z,7.13
2017-11-03T02:45:05.009Z,7.13
2017-11-03T02:46:06.313Z,7.15
2017-11-03T02:47:04.661Z,7.16
2017-11-03T02:48:04.287Z,7.09
2017-11-03T02:49:04.626Z,7.12
2017-11-03T02:50:04.948Z,7.22
2017-11-03T02:51:04.619Z,7.19
2017-11-03T02:52:04.618Z,7.18
2017-11-03T02:53:04.229Z,7.15
2017-11-03T02:54:04.230Z,7.12
2017-11-03T02:55:04.201Z,7.16
2017-11-03T02:56:04.530Z,7.15
2017-11-03T02:57:04.174Z,7.13
2017-11-03T02:58:04.850Z,7.15
2017-11-03T02:59:04.150Z,7.15
2017-11-03T03:00:04.827Z,7.15
2017-11-03T03:01:04.493Z,7.21
2017-11-03T03:02:04.464Z,7.16
2017-11-03T03:03:04.104Z,7.21
2017-11-03T03:04:04.432Z,7.21
2017-11-03T03:05:04.079Z,7.21
2017-11-03T03:06:04.408Z,7.19
2017-11-03T03:07:04.749Z,7.23
2017-11-03T03:08:04.042Z,7.19
2017-11-03T03:09:04.027Z,7.27
2017-11-03T03:10:04.016Z,7.23
2017-11-03T03:11:04.021Z,7.15
2017-11-03T03:12:04.023Z,7.23
2017-11-03T03:13:03.976Z,7.19
2017-11-03T03:14:04.309Z,7.23
2017-11-03T03:15:04.516Z,7.19
2017-11-03T03:16:04.288Z,7.36
2017-11-03T03:17:04.287Z,7.23
2017-11-03T03:18:04.656Z,7.29
2017-11-03T03:19:03.901Z,7.34
2017-11-03T03:20:04.236Z,7.31
2017-11-03T03:21:03.877Z,7.34
2017-11-03T03:22:04.222Z,7.31
2017-11-03T03:23:04.192Z,7.26
2017-11-03T03:24:03.839Z,7.36
2017-11-03T03:25:04.169Z,7.33
2017-11-03T03:26:03.818Z,7.39
2017-11-03T03:27:04.146Z,7.33
2017-11-03T03:28:04.153Z,7.34
2017-11-03T03:29:04.117Z,7.37
2017-11-03T03:30:03.797Z,7.34
2017-11-03T03:31:03.772Z,7.39
2017-11-03T03:32:03.739Z,7.36
2017-11-03T03:33:03.741Z,7.31
2017-11-03T03:34:04.408Z,7.33
2017-11-03T03:35:04.057Z,7.26
2017-11-03T03:36:03.689Z,7.37
2017-11-03T03:37:03.683Z,7.27
2017-11-03T03:38:03.688Z,7.23
2017-11-03T03:39:04.014Z,7.26
2017-11-03T03:40:04.357Z,7.23
2017-11-03T03:41:03.630Z,7.23
2017-11-03T03:42:03.965Z,7.23
2017-11-03T03:43:04.292Z,7.23
2017-11-03T03:44:03.600Z,7.26
2017-11-03T03:45:03.598Z,7.26
2017-11-03T03:46:04.253Z,7.22
2017-11-03T03:47:03.558Z,7.22
2017-11-03T03:48:03.884Z,7.18
2017-11-03T03:49:03.537Z,7.19
2017-11-03T03:50:03.526Z,7.23
2017-11-03T03:51:03.510Z,7.16
2017-11-03T03:52:03.733Z,7.21
2017-11-03T03:53:03.854Z,7.27
2017-11-03T03:54:03.490Z,7.16
2017-11-03T03:55:03.464Z,7.22
2017-11-03T03:56:03.805Z,7.23
2017-11-03T03:57:03.432Z,7.15
2017-11-03T03:58:03.419Z,7.19
2017-11-03T03:59:03.423Z,7.26
2017-11-03T04:00:03.758Z,7.18
2017-11-03T04:01:04.063Z,7.18
2017-11-03T04:02:03.368Z,7.21
2017-11-03T04:03:03.697Z,7.27
2017-11-03T04:04:03.347Z,7.27
2017-11-03T04:05:03.670Z,7.26
2017-11-03T04:06:03.327Z,7.23
2017-11-03T04:07:03.307Z,7.18
2017-11-03T04:08:03.635Z,7.23
2017-11-03T04:09:03.298Z,7.11
2017-11-03T04:10:03.272Z,7.19
2017-11-03T04:11:03.619Z,7.15
2017-11-03T04:12:03.582Z,7.21
2017-11-03T04:13:03.576Z,7.21
2017-11-03T04:14:03.909Z,7.18
2017-11-03T04:15:03.549Z,7.18
2017-11-03T04:16:03.924Z,7.12
2017-11-03T04:17:03.194Z,7.12
2017-11-03T04:18:03.879Z,7.19
2017-11-03T04:19:03.159Z,7.23
2017-11-03T04:20:03.147Z,7.19
2017-11-03T04:21:03.137Z,7.16
2017-11-03T04:22:03.118Z,7.12
2017-11-03T04:23:03.121Z,7.16
2017-11-03T04:24:03.434Z,7.08
2017-11-03T04:25:03.082Z,7.09
2017-11-03T04:26:03.067Z,7.12
2017-11-03T04:27:03.057Z,7.18
2017-11-03T04:28:03.045Z,7.18
2017-11-03T04:29:03.374Z,7.11
2017-11-03T04:30:03.713Z,7.15
2017-11-03T04:31:03.350Z,7.12
2017-11-03T04:32:03.360Z,7.22
2017-11-03T04:33:02.982Z,7.18
2017-11-03T04:34:03.315Z,7.12
2017-11-03T04:35:02.977Z,7.09
2017-11-03T04:36:03.292Z,7.09
2017-11-03T04:37:02.932Z,7.15
2017-11-03T04:38:03.277Z,7.23
2017-11-03T04:39:02.911Z,7.16
2017-11-03T04:40:03.240Z,7.21
2017-11-03T04:41:02.885Z,7.12
2017-11-03T04:42:02.890Z,7.15
2017-11-03T04:43:02.863Z,7.08
2017-11-03T04:44:03.237Z,7.09
2017-11-03T04:45:03.176Z,7.15
2017-11-03T04:46:02.822Z,7.13
2017-11-03T04:47:03.513Z,7.16
2017-11-03T04:48:02.803Z,7.03
2017-11-03T04:49:02.799Z,7.04
2017-11-03T04:50:03.120Z,7.13
2017-11-03T04:51:02.768Z,7.16
2017-11-03T04:52:03.086Z,7.13
2017-11-03T04:53:03.101Z,7.01
2017-11-03T04:54:02.722Z,7.08
2017-11-03T04:55:03.049Z,7.08
2017-11-03T04:56:03.032Z,7.08
2017-11-03T04:57:02.687Z,7.05
2017-11-03T04:58:03.348Z,7.05
2017-11-03T04:59:03.021Z,7.12
2017-11-03T05:00:02.644Z,7.16
2017-11-03T05:01:03.322Z,7.15
2017-11-03T05:02:03.306Z,7.13
2017-11-03T05:03:02.606Z,7.13
2017-11-03T05:04:02.596Z,7.13
2017-11-03T05:05:02.589Z,7.03
2017-11-03T05:06:02.935Z,7.11
2017-11-03T05:07:03.242Z,7.11
2017-11-03T05:08:02.888Z,7.15
2017-11-03T05:09:02.535Z,7.01
2017-11-03T05:10:02.863Z,7.16
2017-11-03T05:11:02.526Z,7.13
2017-11-03T05:12:02.838Z,7.01
2017-11-03T05:13:02.490Z,7.08
2017-11-03T05:14:02.811Z,7.12
2017-11-03T05:15:02.801Z,7.09
2017-11-03T05:16:02.792Z,6.98
2017-11-03T05:17:02.785Z,7.04
2017-11-03T05:18:02.773Z,7
2017-11-03T05:19:02.430Z,7.09
2017-11-03T05:20:02.399Z,7.03
2017-11-03T05:21:02.384Z,6.97
2017-11-03T05:22:02.370Z,7.08
2017-11-03T05:23:02.362Z,7.03
2017-11-03T05:24:02.349Z,6.97
2017-11-03T05:25:02.333Z,7
2017-11-03T05:26:02.665Z,6.98
2017-11-03T05:27:02.997Z,6.95
2017-11-03T05:28:02.641Z,6.95
2017-11-03T05:29:02.978Z,7
2017-11-03T05:30:02.647Z,6.9
2017-11-03T05:31:02.262Z,6.88
2017-11-03T05:32:02.592Z,6.9
2017-11-03T05:33:02.237Z,6.93
2017-11-03T05:34:02.573Z,6.83
2017-11-03T05:35:02.571Z,6.86
2017-11-03T05:36:02.198Z,6.88
2017-11-03T05:37:02.187Z,6.85
2017-11-03T05:38:02.533Z,6.94
2017-11-03T05:39:02.514Z,6.93
2017-11-03T05:40:02.147Z,6.83
2017-11-03T05:41:02.473Z,6.9
2017-11-03T05:42:02.470Z,6.9
2017-11-03T05:43:02.457Z,6.95
2017-11-03T05:44:02.108Z,7
2017-11-03T05:45:02.085Z,6.95
2017-11-03T05:46:02.070Z,6.95
2017-11-03T05:47:02.055Z,7.03
2017-11-03T05:48:02.738Z,6.97
2017-11-03T05:49:02.719Z,7.01
2017-11-03T05:50:02.042Z,6.98
2017-11-03T05:51:02.010Z,7.04
2017-11-03T05:52:02.342Z,7
2017-11-03T05:53:02.323Z,6.97
2017-11-03T05:54:02.311Z,6.98
2017-11-03T05:55:01.977Z,7.04
2017-11-03T05:56:01.946Z,7.03
2017-11-03T05:57:01.937Z,7.03
2017-11-03T05:58:01.919Z,6.98
2017-11-03T05:59:01.905Z,7.05
2017-11-03T06:00:01.895Z,7
2017-11-03T06:01:02.560Z,7.05
2017-11-03T06:02:01.873Z,7.08
2017-11-03T06:03:02.564Z,7.03
2017-11-03T06:04:01.847Z,6.98
2017-11-03T06:05:01.835Z,7.04
2017-11-03T06:06:01.840Z,7
2017-11-03T06:07:02.173Z,7.04
2017-11-03T06:08:01.803Z,7.12
2017-11-03T06:09:01.783Z,7.11
2017-11-03T06:10:01.782Z,7.13
2017-11-03T06:11:02.094Z,7.13
2017-11-03T06:12:02.087Z,7.19
2017-11-03T06:13:01.740Z,7.03
2017-11-03T06:14:01.735Z,7.12
2017-11-03T06:15:01.708Z,7.21
2017-11-03T06:16:02.056Z,7.16
2017-11-03T06:17:01.695Z,7.15
2017-11-03T06:18:01.668Z,7.12
2017-11-03T06:19:01.998Z,7.09
2017-11-03T06:20:01.642Z,7.15
2017-11-03T06:21:02.332Z,7.13
2017-11-03T06:22:01.620Z,7.19
2017-11-03T06:23:01.609Z,7.11
2017-11-03T06:24:01.940Z,7.19
2017-11-03T06:25:01.917Z,7.22
2017-11-03T06:26:01.914Z,7.19
2017-11-03T06:27:01.901Z,7.27
2017-11-03T06:28:01.890Z,7.22
2017-11-03T06:29:01.895Z,7.16
2017-11-03T06:30:01.859Z,7.21
2017-11-03T06:31:02.217Z,7.19
2017-11-03T06:32:01.843Z,7.21
2017-11-03T06:33:01.824Z,7.22
2017-11-03T06:34:01.811Z,7.23
2017-11-03T06:35:01.803Z,7.3
2017-11-03T06:36:01.461Z,7.3
2017-11-03T06:37:01.431Z,7.27
2017-11-03T06:38:02.099Z,7.39
2017-11-03T06:39:01.406Z,7.3
2017-11-03T06:40:01.735Z,7.36
2017-11-03T06:41:01.383Z,7.3
2017-11-03T06:42:02.060Z,7.36
2017-11-03T06:43:01.359Z,7.34
2017-11-03T06:44:01.348Z,7.29
2017-11-03T06:45:01.674Z,7.31
2017-11-03T06:46:02.009Z,7.37
2017-11-03T06:47:01.672Z,7.37
2017-11-03T06:48:01.642Z,7.4
2017-11-03T06:49:01.322Z,7.39
2017-11-03T06:50:01.283Z,7.4
2017-11-03T06:51:01.256Z,7.37
2017-11-03T06:52:01.590Z,7.51
2017-11-03T06:53:01.228Z,7.4
2017-11-03T06:54:01.560Z,7.49
2017-11-03T06:55:01.209Z,7.45
2017-11-03T06:56:01.531Z,7.51
2017-11-03T06:57:01.183Z,7.48
2017-11-03T06:58:01.171Z,7.4
2017-11-03T06:59:01.496Z,7.45
2017-11-03T07:00:01.837Z,7.41
2017-11-03T07:01:01.140Z,7.39
2017-11-03T07:02:01.122Z,7.37
2017-11-03T07:03:01.119Z,7.48
2017-11-03T07:04:01.793Z,7.44
2017-11-03T07:05:01.418Z,7.45
2017-11-03T07:06:01.413Z,7.39
2017-11-03T07:07:01.055Z,7.49
2017-11-03T07:08:01.051Z,7.51
2017-11-03T07:09:01.047Z,7.51
2017-11-03T07:10:01.023Z,7.49
2017-11-03T07:11:01.378Z,7.44
2017-11-03T07:12:00.995Z,7.61
2017-11-03T07:13:00.988Z,7.63
2017-11-03T07:14:00.971Z,7.63
2017-11-03T07:15:01.642Z,7.58
2017-11-03T07:16:00.947Z,7.63
2017-11-03T07:17:01.276Z,7.59
2017-11-03T07:18:01.620Z,7.7
2017-11-03T07:19:01.266Z,7.7
2017-11-03T07:20:00.907Z,7.75
2017-11-03T07:21:01.227Z,7.73
2017-11-03T07:22:01.233Z,7.75
2017-11-03T07:23:00.864Z,7.78
2017-11-03T07:24:01.199Z,7.77
2017-11-03T07:25:00.842Z,7.82
2017-11-03T07:26:00.846Z,7.77
2017-11-03T07:27:00.814Z,7.77
2017-11-03T07:28:01.158Z,7.77
2017-11-03T07:29:00.806Z,7.77
2017-11-03T07:30:00.776Z,7.82
2017-11-03T07:31:00.773Z,7.77
2017-11-03T07:32:01.095Z,7.86
2017-11-03T07:33:01.458Z,7.95
2017-11-03T07:34:01.068Z,7.89
2017-11-03T07:35:01.073Z,7.96
2017-11-03T07:36:00.707Z,7.99
2017-11-03T07:37:01.038Z,8.06
2017-11-03T07:38:01.383Z,8.06
2017-11-03T07:39:01.355Z,8.07
2017-11-03T07:40:00.658Z,8.09
2017-11-03T07:41:00.999Z,8.04
2017-11-03T07:42:00.638Z,8.09
2017-11-03T07:43:00.984Z,8.09
2017-11-03T07:44:00.616Z,8.09
2017-11-03T07:45:00.942Z,8.09
2017-11-03T07:46:01.277Z,8.09
2017-11-03T07:47:00.575Z,8.1
2017-11-03T07:48:01.249Z,8.11
2017-11-03T07:49:01.229Z,8.1
2017-11-03T07:50:00.570Z,8.16
2017-11-03T07:51:00.894Z,8.13
2017-11-03T07:52:00.532Z,8.07
2017-11-03T07:53:00.843Z,8.17
2017-11-03T07:54:00.837Z,8.16
2017-11-03T07:55:00.481Z,8.06
2017-11-03T07:56:00.810Z,8.13
2017-11-03T07:57:01.146Z,8.28
2017-11-03T07:58:00.787Z,8.22
2017-11-03T07:59:00.779Z,8.22
2017-11-03T08:00:00.433Z,8.34
2017-11-03T08:01:00.760Z,8.31
2017-11-03T08:02:00.408Z,8.29
2017-11-03T08:03:00.730Z,8.36
2017-11-03T08:04:01.056Z,8.39
2017-11-03T08:05:00.368Z,8.49
2017-11-03T08:06:00.373Z,8.47
2017-11-03T08:07:00.681Z,8.57
2017-11-03T08:08:00.685Z,8.57
2017-11-03T08:09:00.697Z,8.71
2017-11-03T08:10:01.039Z,8.77
2017-11-03T08:11:00.301Z,8.76
2017-11-03T08:12:00.965Z,8.87
2017-11-03T08:13:00.275Z,8.86
2017-11-03T08:14:00.603Z,8.95
2017-11-03T08:15:00.815Z,8.87
2017-11-03T08:16:00.576Z,8.95
2017-11-03T08:17:00.574Z,9
2017-11-03T08:18:00.232Z,8.98
2017-11-03T08:19:00.890Z,9
2017-11-03T08:20:00.530Z,9.03
2017-11-03T08:21:00.531Z,9.08
2017-11-03T08:22:00.510Z,9.08
2017-11-03T08:23:00.500Z,9.09
2017-11-03T08:24:00.488Z,9.19
2017-11-03T08:25:00.474Z,9.21
2017-11-03T08:26:00.486Z,9.24
2017-11-03T08:27:00.812Z,9.17
2017-11-03T08:28:00.444Z,9.14
2017-11-03T08:29:00.774Z,9.19
2017-11-03T08:30:00.441Z,9.3
2017-11-03T08:31:00.406Z,9.16
2017-11-03T08:32:00.741Z,9.2
2017-11-03T08:33:00.387Z,9.37
2017-11-03T08:34:00.039Z,9.34
2017-11-03T08:35:00.367Z,9.29
2017-11-03T08:36:00.362Z,9.3
2017-11-03T08:37:00.006Z,9.34
2017-11-03T08:37:59.994Z,9.27
2017-11-03T08:39:00.325Z,9.34
2017-11-03T08:40:00.315Z,9.3
2017-11-03T08:40:59.962Z,9.17
2017-11-03T08:42:00.291Z,9.14
2017-11-03T08:43:00.291Z,9.19
2017-11-03T08:44:00.270Z,9.16
2017-11-03T08:45:00.598Z,9.11
2017-11-03T08:46:00.243Z,9.21
2017-11-03T08:46:59.895Z,9.14
2017-11-03T08:48:00.260Z,9.12
2017-11-03T08:49:00.217Z,9.19
2017-11-03T08:49:59.862Z,9.12
2017-11-03T08:51:00.197Z,9.14
2017-11-03T08:51:59.843Z,9.11
2017-11-03T08:52:59.838Z,9.14
2017-11-03T08:54:00.166Z,9.14
2017-11-03T08:55:00.152Z,9.35
2017-11-03T08:56:00.144Z,9.3
2017-11-03T08:56:59.789Z,9.47
2017-11-03T08:58:00.122Z,9.5
2017-11-03T08:58:59.767Z,9.45
2017-11-03T08:59:59.759Z,9.57
2017-11-03T09:00:59.748Z,9.66
2017-11-03T09:01:59.737Z,9.85
2017-11-03T09:03:00.066Z,9.88
2017-11-03T09:04:00.058Z,9.96
2017-11-03T09:05:00.046Z,10
2017-11-03T09:06:00.045Z,10.14
2017-11-03T09:06:59.690Z,10.17
2017-11-03T09:08:00.381Z,10.1
2017-11-03T09:08:59.665Z,10.15
2017-11-03T09:09:59.671Z,10.15
2017-11-03T09:10:59.990Z,10.15
2017-11-03T09:11:59.977Z,10.2
2017-11-03T09:12:59.626Z,10.18
2017-11-03T09:13:59.613Z,10.13
2017-11-03T09:14:59.603Z,10.25
2017-11-03T09:15:59.597Z,10.32
2017-11-03T09:16:59.920Z,10.28
2017-11-03T09:17:59.578Z,10.25
2017-11-03T09:18:59.907Z,10.23
2017-11-03T09:19:59.892Z,10.25
2017-11-03T09:20:59.910Z,10.13
2017-11-03T09:21:59.919Z,10.1
2017-11-03T09:23:00.225Z,10.02
2017-11-03T09:24:00.221Z,9.99
2017-11-03T09:24:59.849Z,10.02
2017-11-03T09:25:59.836Z,9.99
2017-11-03T09:26:59.481Z,9.92
2017-11-03T09:27:59.826Z,9.81
2017-11-03T09:28:59.465Z,9.72
2017-11-03T09:29:59.454Z,9.66
2017-11-03T09:30:59.454Z,9.6
2017-11-03T09:31:59.454Z,9.66
2017-11-03T09:32:59.444Z,9.6
2017-11-03T09:33:59.413Z,9.63
2017-11-03T09:34:59.406Z,9.62
2017-11-03T09:35:59.751Z,9.63
2017-11-03T09:36:59.385Z,9.62
2017-11-03T09:37:59.733Z,9.6
2017-11-03T09:38:59.362Z,9.48
2017-11-03T09:39:59.353Z,9.55
2017-11-03T09:40:59.346Z,9.48
2017-11-03T09:42:00.013Z,9.55
2017-11-03T09:42:59.321Z,9.45
2017-11-03T09:43:59.311Z,9.32
2017-11-03T09:44:59.637Z,9.34
2017-11-03T09:45:59.650Z,9.17
2017-11-03T09:46:59.651Z,9.04
2017-11-03T09:47:59.274Z,9.01
2017-11-03T09:48:59.258Z,9.01
2017-11-03T09:49:59.604Z,9
2017-11-03T09:50:59.580Z,8.97
2017-11-03T09:51:59.229Z,8.85
2017-11-03T09:52:59.570Z,8.86
2017-11-03T09:53:59.552Z,8.69
2017-11-03T09:54:59.194Z,8.69
2017-11-03T09:55:59.196Z,8.67
2017-11-03T09:56:59.186Z,8.58
2017-11-03T09:57:59.858Z,8.61
2017-11-03T09:58:59.549Z,8.61
2017-11-03T09:59:59.497Z,8.62
2017-11-03T10:00:59.130Z,8.67
2017-11-03T10:01:59.815Z,8.71
2017-11-03T10:02:59.452Z,8.79
2017-11-03T10:03:59.104Z,8.95
2017-11-03T10:04:59.091Z,9.01
2017-11-03T10:05:59.080Z,9.11
2017-11-03T10:06:59.411Z,9.21
2017-11-03T10:07:59.408Z,9.37
2017-11-03T10:08:59.391Z,9.47
2017-11-03T10:09:59.728Z,9.56
2017-11-03T10:10:59.025Z,9.66
2017-11-03T10:11:59.359Z,9.71
2017-11-03T10:12:59.004Z,9.74
2017-11-03T10:13:59.332Z,9.9
2017-11-03T10:14:59.321Z,9.95
2017-11-03T10:15:58.975Z,10.05
2017-11-03T10:16:58.962Z,10.02
2017-11-03T10:17:58.957Z,10.07
2017-11-03T10:18:59.281Z,10.14
2017-11-03T10:19:58.933Z,10.28
2017-11-03T10:20:59.264Z,10.29
2017-11-03T10:21:58.910Z,10.26
2017-11-03T10:22:58.900Z,10.31
2017-11-03T10:23:58.888Z,10.31
2017-11-03T10:24:58.880Z,10.25
2017-11-03T10:25:58.871Z,10.28
2017-11-03T10:26:58.874Z,10.33
2017-11-03T10:27:58.850Z,10.39
2017-11-03T10:28:59.181Z,10.39
2017-11-03T10:29:58.829Z,10.38
2017-11-03T10:30:58.818Z,10.42
2017-11-03T10:31:58.806Z,10.51
2017-11-03T10:32:59.137Z,10.57
2017-11-03T10:33:58.786Z,10.55
2017-11-03T10:34:58.779Z,10.59
2017-11-03T10:35:59.456Z,10.66
2017-11-03T10:36:59.442Z,10.66
2017-11-03T10:37:59.440Z,10.72
2017-11-03T10:38:59.081Z,10.7
2017-11-03T10:39:59.418Z,10.69
2017-11-03T10:40:59.064Z,10.75
2017-11-03T10:41:59.056Z,10.73
2017-11-03T10:42:59.040Z,10.84
2017-11-03T10:43:59.037Z,10.83
2017-11-03T10:44:58.681Z,10.72
2017-11-03T10:45:59.021Z,10.69
2017-11-03T10:46:59.002Z,10.67
2017-11-03T10:47:58.654Z,10.7
2017-11-03T10:48:58.996Z,10.76
2017-11-03T10:49:58.636Z,10.79
2017-11-03T10:50:58.622Z,10.75
2017-11-03T10:51:58.953Z,10.76
2017-11-03T10:52:58.945Z,10.83
2017-11-03T10:53:58.935Z,10.75
2017-11-03T10:54:58.581Z,10.77
2017-11-03T10:55:58.576Z,10.79
2017-11-03T10:56:58.908Z,10.85
2017-11-03T10:57:59.253Z,10.75
2017-11-03T10:58:58.896Z,10.87
2017-11-03T10:59:58.531Z,10.88
2017-11-03T11:00:58.526Z,10.94
2017-11-03T11:01:58.522Z,10.91
2017-11-03T11:02:58.508Z,10.9
2017-11-03T11:03:58.838Z,10.95
2017-11-03T11:04:59.168Z,10.97
2017-11-03T11:05:58.497Z,11.08
2017-11-03T11:06:59.152Z,11.05
2017-11-03T11:07:59.143Z,11.03
2017-11-03T11:08:58.445Z,11.13
2017-11-03T11:09:58.474Z,11.02
2017-11-03T11:10:58.430Z,11.06
2017-11-03T11:11:58.417Z,11.21
2017-11-03T11:12:58.408Z,11.09
2017-11-03T11:13:58.400Z,11.09
2017-11-03T11:14:58.397Z,11.18
2017-11-03T11:15:58.724Z,11.09
2017-11-03T11:16:58.372Z,11.12
2017-11-03T11:17:58.705Z,11.16
2017-11-03T11:18:58.360Z,11.15
2017-11-03T11:19:59.027Z,11.13
2017-11-03T11:20:58.679Z,11.18
2017-11-03T11:21:58.692Z,11.24
2017-11-03T11:22:58.312Z,11.3
2017-11-03T11:23:58.663Z,11.28
2017-11-03T11:24:58.301Z,11.28
2017-11-03T11:25:58.627Z,11.23
2017-11-03T11:26:58.618Z,11.21
2017-11-03T11:27:58.267Z,11.26
2017-11-03T11:28:58.601Z,11.16
2017-11-03T11:29:58.605Z,11.13
2017-11-03T11:30:58.919Z,11.13
2017-11-03T11:31:58.235Z,11.21
2017-11-03T11:32:58.933Z,11.26
2017-11-03T11:33:58.213Z,11.33
2017-11-03T11:34:58.569Z,11.26
2017-11-03T11:35:58.193Z,11.24
2017-11-03T11:36:58.186Z,11.28
2017-11-03T11:37:58.515Z,11.26
2017-11-03T11:38:58.163Z,11.26
2017-11-03T11:39:58.836Z,11.21
2017-11-03T11:40:58.146Z,11.21
2017-11-03T11:41:58.827Z,11.18
2017-11-03T11:42:58.138Z,11.15
2017-11-03T11:43:58.809Z,11.21
2017-11-03T11:44:58.105Z,11.24
2017-11-03T11:45:58.439Z,11.21
2017-11-03T11:46:58.087Z,11.09
2017-11-03T11:47:58.420Z,11.12
2017-11-03T11:48:58.076Z,11.16
2017-11-03T11:49:58.060Z,11.16
2017-11-03T11:50:58.050Z,11.13
2017-11-03T11:51:58.393Z,10.98
2017-11-03T11:52:58.033Z,11.06
2017-11-03T11:53:58.029Z,11
2017-11-03T11:54:58.381Z,11.02
2017-11-03T11:55:58.347Z,11.05
2017-11-03T11:56:57.994Z,11.09
2017-11-03T11:57:58.668Z,11.05
2017-11-03T11:58:58.319Z,11.08
2017-11-03T11:59:57.966Z,11.02
2017-11-03T12:00:58.306Z,10.91
2017-11-03T12:01:57.946Z,10.94
2017-11-03T12:02:58.062Z,10.95
2017-11-03T12:03:57.927Z,10.91
2017-11-03T12:04:57.919Z,10.87
2017-11-03T12:05:58.252Z,10.92
2017-11-03T12:06:58.240Z,10.87
2017-11-03T12:07:57.891Z,10.95
2017-11-03T12:08:57.883Z,10.9
2017-11-03T12:09:58.224Z,10.88
2017-11-03T12:10:57.874Z,10.97
2017-11-03T12:11:58.196Z,10.92
2017-11-03T12:12:57.845Z,10.98
2017-11-03T12:13:58.176Z,11.02
2017-11-03T12:14:57.825Z,11.02
2017-11-03T12:15:58.157Z,11.05
2017-11-03T12:16:58.150Z,11.05
2017-11-03T12:17:57.805Z,10.98
2017-11-03T12:18:57.789Z,10.95
2017-11-03T12:19:58.124Z,10.9
2017-11-03T12:20:58.117Z,10.79
2017-11-03T12:21:57.780Z,10.76
2017-11-03T12:22:57.765Z,10.66
2017-11-03T12:23:58.081Z,10.67
2017-11-03T12:24:58.425Z,10.51
2017-11-03T12:25:58.061Z,10.55
2017-11-03T12:26:58.058Z,10.57
2017-11-03T12:27:58.046Z,10.57
2017-11-03T12:28:57.695Z,10.55
2017-11-03T12:29:58.387Z,10.59
2017-11-03T12:30:58.028Z,10.58
2017-11-03T12:31:58.034Z,10.63
2017-11-03T12:32:57.661Z,10.69
2017-11-03T12:33:58.002Z,10.66
2017-11-03T12:34:57.635Z,10.7
2017-11-03T12:35:57.627Z,10.63
2017-11-03T12:36:57.962Z,10.72
2017-11-03T12:37:58.300Z,10.79
2017-11-03T12:38:57.600Z,10.8
2017-11-03T12:39:57.585Z,10.8
2017-11-03T12:40:57.583Z,10.77
2017-11-03T12:41:58.258Z,10.67
2017-11-03T12:42:57.562Z,10.69
2017-11-03T12:43:58.247Z,10.69
2017-11-03T12:44:57.884Z,10.7
2017-11-03T12:45:57.891Z,10.67
2017-11-03T12:46:58.216Z,10.63
2017-11-03T12:47:57.534Z,10.61
2017-11-03T12:48:57.840Z,10.59
2017-11-03T12:49:57.492Z,10.55
2017-11-03T12:50:57.495Z,10.57
2017-11-03T12:51:57.816Z,10.57
2017-11-03T12:52:57.803Z,10.59
2017-11-03T12:53:57.471Z,10.65
2017-11-03T12:54:58.136Z,10.7
2017-11-03T12:55:57.776Z,10.72
2017-11-03T12:56:57.424Z,10.72
2017-11-03T12:57:57.756Z,10.84
2017-11-03T12:58:57.408Z,10.77
2017-11-03T12:59:57.737Z,10.91
2017-11-03T13:00:57.407Z,10.91
2017-11-03T13:01:57.377Z,10.87
2017-11-03T13:02:57.725Z,10.88
2017-11-03T13:03:57.706Z,11.02
2017-11-03T13:04:57.686Z,10.98
2017-11-03T13:05:57.340Z,10.98
2017-11-03T13:06:57.678Z,10.97
2017-11-03T13:07:57.317Z,10.94
2017-11-03T13:08:57.659Z,10.94
2017-11-03T13:09:57.299Z,10.97
2017-11-03T13:10:57.345Z,10.98
2017-11-03T13:11:57.302Z,10.97
2017-11-03T13:12:57.272Z,10.92
2017-11-03T13:13:57.262Z,10.9
2017-11-03T13:14:57.595Z,10.9